sensor_id;sensor_type;location;lat;lon;timestamp;temperature;humidity
62363;DHT22;48396;48.426;1.500;2022-07-23T00:00:55;24.90;88.50
62363;DHT22;48396;48.426;1.500;2022-07-23T00:03:21;24.90;88.30
62363;DHT22;48396;48.426;1.500;2022-07-23T00:05:47;24.90;88.30
62363;DHT22;48396;48.426;1.500;2022-07-23T00:08:12;24.90;88.10
62363;DHT22;48396;48.426;1.500;2022-07-23T00:10:38;25.00;88.00
62363;DHT22;48396;48.426;1.500;2022-07-23T00:13:04;25.00;87.80
62363;DHT22;48396;48.426;1.500;2022-07-23T00:15:29;24.90;88.00
62363;DHT22;48396;48.426;1.500;2022-07-23T00:17:55;24.90;88.00
62363;DHT22;48396;48.426;1.500;2022-07-23T00:20:20;24.80;88.30
62363;DHT22;48396;48.426;1.500;2022-07-23T00:22:53;24.80;88.70
62363;DHT22;48396;48.426;1.500;2022-07-23T00:25:19;24.80;88.40
62363;DHT22;48396;48.426;1.500;2022-07-23T00:27:45;24.70;88.90
62363;DHT22;48396;48.426;1.500;2022-07-23T00:30:11;24.60;88.90
62363;DHT22;48396;48.426;1.500;2022-07-23T00:32:48;24.60;89.20
62363;DHT22;48396;48.426;1.500;2022-07-23T00:35:13;24.60;89.40
62363;DHT22;48396;48.426;1.500;2022-07-23T00:37:39;24.60;89.50
62363;DHT22;48396;48.426;1.500;2022-07-23T00:40:05;24.50;89.40
62363;DHT22;48396;48.426;1.500;2022-07-23T00:42:31;24.60;89.60
62363;DHT22;48396;48.426;1.500;2022-07-23T00:44:57;24.60;89.60
62363;DHT22;48396;48.426;1.500;2022-07-23T00:47:22;24.50;90.00
62363;DHT22;48396;48.426;1.500;2022-07-23T00:49:48;24.40;90.10
62363;DHT22;48396;48.426;1.500;2022-07-23T00:52:14;24.40;90.10
62363;DHT22;48396;48.426;1.500;2022-07-23T00:54:40;24.20;90.60
62363;DHT22;48396;48.426;1.500;2022-07-23T00:57:05;24.10;90.70
62363;DHT22;48396;48.426;1.500;2022-07-23T00:59:31;24.10;90.70
62363;DHT22;48396;48.426;1.500;2022-07-23T01:01:56;24.20;90.70
62363;DHT22;48396;48.426;1.500;2022-07-23T01:04:22;24.30;90.60
62363;DHT22;48396;48.426;1.500;2022-07-23T01:06:48;24.40;90.50
62363;DHT22;48396;48.426;1.500;2022-07-23T01:09:13;24.40;90.40
62363;DHT22;48396;48.426;1.500;2022-07-23T01:11:39;24.50;90.30
62363;DHT22;48396;48.426;1.500;2022-07-23T01:14:12;24.50;90.30
62363;DHT22;48396;48.426;1.500;2022-07-23T01:16:39;24.40;90.20
62363;DHT22;48396;48.426;1.500;2022-07-23T01:19:05;24.50;90.50
62363;DHT22;48396;48.426;1.500;2022-07-23T01:21:36;24.50;90.40
62363;DHT22;48396;48.426;1.500;2022-07-23T01:24:02;24.50;90.30
62363;DHT22;48396;48.426;1.500;2022-07-23T01:26:28;24.50;90.30
62363;DHT22;48396;48.426;1.500;2022-07-23T01:28:53;24.40;90.40
62363;DHT22;48396;48.426;1.500;2022-07-23T01:31:19;24.40;90.40
62363;DHT22;48396;48.426;1.500;2022-07-23T01:33:45;24.40;90.60
62363;DHT22;48396;48.426;1.500;2022-07-23T01:36:10;24.40;90.60
62363;DHT22;48396;48.426;1.500;2022-07-23T01:38:36;24.30;90.80
62363;DHT22;48396;48.426;1.500;2022-07-23T01:41:02;24.20;91.00
62363;DHT22;48396;48.426;1.500;2022-07-23T01:43:27;24.30;91.00
62363;DHT22;48396;48.426;1.500;2022-07-23T01:45:53;24.30;91.00
62363;DHT22;48396;48.426;1.500;2022-07-23T01:48:18;24.10;91.20
62363;DHT22;48396;48.426;1.500;2022-07-23T01:50:45;24.10;91.30
62363;DHT22;48396;48.426;1.500;2022-07-23T01:53:11;24.20;91.40
62363;DHT22;48396;48.426;1.500;2022-07-23T01:55:36;24.10;91.40
62363;DHT22;48396;48.426;1.500;2022-07-23T01:58:02;24.00;91.70
62363;DHT22;48396;48.426;1.500;2022-07-23T02:00:28;23.90;91.80
62363;DHT22;48396;48.426;1.500;2022-07-23T02:02:53;23.70;92.10
62363;DHT22;48396;48.426;1.500;2022-07-23T02:05:19;23.70;92.20
62363;DHT22;48396;48.426;1.500;2022-07-23T02:07:45;23.80;92.40
62363;DHT22;48396;48.426;1.500;2022-07-23T02:10:10;23.70;92.30
62363;DHT22;48396;48.426;1.500;2022-07-23T02:12:36;23.60;92.50
62363;DHT22;48396;48.426;1.500;2022-07-23T02:15:01;23.70;92.50
62363;DHT22;48396;48.426;1.500;2022-07-23T02:17:27;23.70;92.40
62363;DHT22;48396;48.426;1.500;2022-07-23T02:19:53;23.90;92.40
62363;DHT22;48396;48.426;1.500;2022-07-23T02:22:18;23.80;92.20
62363;DHT22;48396;48.426;1.500;2022-07-23T02:24:44;23.80;92.20
62363;DHT22;48396;48.426;1.500;2022-07-23T02:27:09;23.80;92.20
62363;DHT22;48396;48.426;1.500;2022-07-23T02:29:35;23.80;92.30
62363;DHT22;48396;48.426;1.500;2022-07-23T02:32:01;23.80;92.20
62363;DHT22;48396;48.426;1.500;2022-07-23T02:34:26;23.90;92.40
62363;DHT22;48396;48.426;1.500;2022-07-23T02:36:52;24.00;92.00
62363;DHT22;48396;48.426;1.500;2022-07-23T02:39:17;24.00;91.90
62363;DHT22;48396;48.426;1.500;2022-07-23T02:41:43;24.00;91.80
62363;DHT22;48396;48.426;1.500;2022-07-23T02:44:08;24.10;91.80
62363;DHT22;48396;48.426;1.500;2022-07-23T02:46:34;24.10;91.70
62363;DHT22;48396;48.426;1.500;2022-07-23T02:49:00;24.10;91.60
62363;DHT22;48396;48.426;1.500;2022-07-23T02:51:25;24.10;91.60
62363;DHT22;48396;48.426;1.500;2022-07-23T02:53:51;24.10;91.60
62363;DHT22;48396;48.426;1.500;2022-07-23T02:56:16;24.00;91.70
62363;DHT22;48396;48.426;1.500;2022-07-23T02:58:42;23.90;91.70
62363;DHT22;48396;48.426;1.500;2022-07-23T03:01:08;23.70;91.90
62363;DHT22;48396;48.426;1.500;2022-07-23T03:03:33;23.60;92.10
62363;DHT22;48396;48.426;1.500;2022-07-23T03:05:59;23.60;92.20
62363;DHT22;48396;48.426;1.500;2022-07-23T03:08:24;23.60;91.90
62363;DHT22;48396;48.426;1.500;2022-07-23T03:10:50;23.60;91.80
62363;DHT22;48396;48.426;1.500;2022-07-23T03:13:16;23.60;91.70
62363;DHT22;48396;48.426;1.500;2022-07-23T03:15:41;23.60;91.60
62363;DHT22;48396;48.426;1.500;2022-07-23T03:18:07;23.50;91.60
62363;DHT22;48396;48.426;1.500;2022-07-23T03:20:32;23.50;91.50
62363;DHT22;48396;48.426;1.500;2022-07-23T03:22:58;23.60;91.50
62363;DHT22;48396;48.426;1.500;2022-07-23T03:25:24;23.60;91.30
62363;DHT22;48396;48.426;1.500;2022-07-23T03:27:49;23.60;91.10
62363;DHT22;48396;48.426;1.500;2022-07-23T03:30:15;23.60;91.00
62363;DHT22;48396;48.426;1.500;2022-07-23T03:32:40;23.60;91.00
62363;DHT22;48396;48.426;1.500;2022-07-23T03:35:07;23.60;91.00
62363;DHT22;48396;48.426;1.500;2022-07-23T03:37:33;23.60;90.90
62363;DHT22;48396;48.426;1.500;2022-07-23T03:39:58;23.60;90.80
62363;DHT22;48396;48.426;1.500;2022-07-23T03:42:24;23.50;90.70
62363;DHT22;48396;48.426;1.500;2022-07-23T03:44:50;23.40;90.80
62363;DHT22;48396;48.426;1.500;2022-07-23T03:47:15;23.40;90.90
62363;DHT22;48396;48.426;1.500;2022-07-23T03:49:42;23.30;90.90
62363;DHT22;48396;48.426;1.500;2022-07-23T03:52:08;23.20;91.00
62363;DHT22;48396;48.426;1.500;2022-07-23T03:54:33;23.30;91.10
62363;DHT22;48396;48.426;1.500;2022-07-23T03:56:59;23.30;91.00
62363;DHT22;48396;48.426;1.500;2022-07-23T03:59:25;23.40;90.90
62363;DHT22;48396;48.426;1.500;2022-07-23T04:01:50;23.40;90.70
62363;DHT22;48396;48.426;1.500;2022-07-23T04:04:16;23.40;90.70
62363;DHT22;48396;48.426;1.500;2022-07-23T04:06:41;23.40;90.70
62363;DHT22;48396;48.426;1.500;2022-07-23T04:09:07;23.50;90.70
62363;DHT22;48396;48.426;1.500;2022-07-23T04:11:33;23.40;90.70
62363;DHT22;48396;48.426;1.500;2022-07-23T04:13:58;23.40;90.70
62363;DHT22;48396;48.426;1.500;2022-07-23T04:16:24;23.40;90.70
62363;DHT22;48396;48.426;1.500;2022-07-23T04:18:49;23.40;90.70
62363;DHT22;48396;48.426;1.500;2022-07-23T04:21:15;23.30;90.60
62363;DHT22;48396;48.426;1.500;2022-07-23T04:23:41;23.30;90.70
62363;DHT22;48396;48.426;1.500;2022-07-23T04:26:06;23.30;90.70
62363;DHT22;48396;48.426;1.500;2022-07-23T04:28:32;23.40;90.70
62363;DHT22;48396;48.426;1.500;2022-07-23T04:30:58;23.40;90.50
62363;DHT22;48396;48.426;1.500;2022-07-23T04:33:24;23.40;90.60
62363;DHT22;48396;48.426;1.500;2022-07-23T04:35:49;23.30;90.50
62363;DHT22;48396;48.426;1.500;2022-07-23T04:38:15;23.30;90.40
62363;DHT22;48396;48.426;1.500;2022-07-23T04:40:40;23.30;90.30
62363;DHT22;48396;48.426;1.500;2022-07-23T04:43:06;23.20;90.30
62363;DHT22;48396;48.426;1.500;2022-07-23T04:45:31;23.00;90.50
62363;DHT22;48396;48.426;1.500;2022-07-23T04:47:57;23.10;90.60
62363;DHT22;48396;48.426;1.500;2022-07-23T04:50:23;23.10;90.60
62363;DHT22;48396;48.426;1.500;2022-07-23T04:52:49;23.20;90.50
62363;DHT22;48396;48.426;1.500;2022-07-23T04:55:15;23.20;90.40
62363;DHT22;48396;48.426;1.500;2022-07-23T04:57:41;23.20;90.30
62363;DHT22;48396;48.426;1.500;2022-07-23T05:00:07;23.20;90.30
62363;DHT22;48396;48.426;1.500;2022-07-23T05:02:33;23.10;90.30
62363;DHT22;48396;48.426;1.500;2022-07-23T05:04:59;23.20;90.40
62363;DHT22;48396;48.426;1.500;2022-07-23T05:07:24;23.20;90.30
62363;DHT22;48396;48.426;1.500;2022-07-23T05:09:50;23.10;90.30
62363;DHT22;48396;48.426;1.500;2022-07-23T05:12:16;23.10;90.30
62363;DHT22;48396;48.426;1.500;2022-07-23T05:14:41;23.20;90.30
62363;DHT22;48396;48.426;1.500;2022-07-23T05:17:07;23.20;90.20
62363;DHT22;48396;48.426;1.500;2022-07-23T05:19:33;23.20;90.20
62363;DHT22;48396;48.426;1.500;2022-07-23T05:21:59;23.10;90.30
62363;DHT22;48396;48.426;1.500;2022-07-23T05:24:24;23.10;90.40
62363;DHT22;48396;48.426;1.500;2022-07-23T05:26:50;23.00;90.30
62363;DHT22;48396;48.426;1.500;2022-07-23T05:29:16;22.90;90.40
62363;DHT22;48396;48.426;1.500;2022-07-23T05:31:41;22.90;90.40
62363;DHT22;48396;48.426;1.500;2022-07-23T05:34:07;22.90;90.50
62363;DHT22;48396;48.426;1.500;2022-07-23T05:36:33;23.00;90.40
62363;DHT22;48396;48.426;1.500;2022-07-23T05:38:58;23.10;90.30
62363;DHT22;48396;48.426;1.500;2022-07-23T05:41:24;23.10;90.10
62363;DHT22;48396;48.426;1.500;2022-07-23T05:43:51;23.20;90.00
62363;DHT22;48396;48.426;1.500;2022-07-23T05:46:17;23.20;89.80
62363;DHT22;48396;48.426;1.500;2022-07-23T05:48:42;23.30;89.60
62363;DHT22;48396;48.426;1.500;2022-07-23T05:51:08;23.20;89.40
62363;DHT22;48396;48.426;1.500;2022-07-23T05:53:34;23.10;89.60
62363;DHT22;48396;48.426;1.500;2022-07-23T05:56:00;23.10;89.70
62363;DHT22;48396;48.426;1.500;2022-07-23T05:58:26;23.10;90.10
62363;DHT22;48396;48.426;1.500;2022-07-23T06:00:52;22.90;89.70
62363;DHT22;48396;48.426;1.500;2022-07-23T06:03:17;22.90;90.00
62363;DHT22;48396;48.426;1.500;2022-07-23T06:05:43;22.80;90.10
62363;DHT22;48396;48.426;1.500;2022-07-23T06:08:09;22.80;90.10
62363;DHT22;48396;48.426;1.500;2022-07-23T06:10:34;22.80;90.00
62363;DHT22;48396;48.426;1.500;2022-07-23T06:13:00;22.70;90.20
62363;DHT22;48396;48.426;1.500;2022-07-23T06:15:25;22.80;90.20
62363;DHT22;48396;48.426;1.500;2022-07-23T06:17:51;22.90;90.00
62363;DHT22;48396;48.426;1.500;2022-07-23T06:20:17;22.90;90.00
62363;DHT22;48396;48.426;1.500;2022-07-23T06:22:42;23.00;89.80
62363;DHT22;48396;48.426;1.500;2022-07-23T06:25:08;23.00;89.50
62363;DHT22;48396;48.426;1.500;2022-07-23T06:27:34;23.00;89.20
62363;DHT22;48396;48.426;1.500;2022-07-23T06:29:59;22.90;88.70
62363;DHT22;48396;48.426;1.500;2022-07-23T06:32:25;22.90;89.20
62363;DHT22;48396;48.426;1.500;2022-07-23T06:34:50;22.90;89.10
62363;DHT22;48396;48.426;1.500;2022-07-23T06:37:16;23.00;89.00
62363;DHT22;48396;48.426;1.500;2022-07-23T06:39:42;23.10;88.30
62363;DHT22;48396;48.426;1.500;2022-07-23T06:42:07;23.10;88.20
62363;DHT22;48396;48.426;1.500;2022-07-23T06:44:33;23.10;88.10
62363;DHT22;48396;48.426;1.500;2022-07-23T06:46:58;23.10;87.90
62363;DHT22;48396;48.426;1.500;2022-07-23T06:49:24;23.20;87.90
62363;DHT22;48396;48.426;1.500;2022-07-23T06:51:50;23.20;87.50
62363;DHT22;48396;48.426;1.500;2022-07-23T06:54:15;23.30;87.20
62363;DHT22;48396;48.426;1.500;2022-07-23T06:56:41;23.30;87.10
62363;DHT22;48396;48.426;1.500;2022-07-23T06:59:08;23.40;86.60
62363;DHT22;48396;48.426;1.500;2022-07-23T07:01:33;23.40;86.10
62363;DHT22;48396;48.426;1.500;2022-07-23T07:03:59;23.40;86.00
62363;DHT22;48396;48.426;1.500;2022-07-23T07:06:24;23.30;86.20
62363;DHT22;48396;48.426;1.500;2022-07-23T07:08:50;23.20;86.20
62363;DHT22;48396;48.426;1.500;2022-07-23T07:11:16;23.30;86.20
62363;DHT22;48396;48.426;1.500;2022-07-23T07:13:41;23.30;85.90
62363;DHT22;48396;48.426;1.500;2022-07-23T07:16:07;23.30;86.00
62363;DHT22;48396;48.426;1.500;2022-07-23T07:18:32;23.30;85.80
62363;DHT22;48396;48.426;1.500;2022-07-23T07:20:58;23.30;85.40
62363;DHT22;48396;48.426;1.500;2022-07-23T07:23:24;23.30;85.50
62363;DHT22;48396;48.426;1.500;2022-07-23T07:25:49;23.20;85.30
62363;DHT22;48396;48.426;1.500;2022-07-23T07:28:15;23.30;85.10
62363;DHT22;48396;48.426;1.500;2022-07-23T07:30:41;23.20;85.00
62363;DHT22;48396;48.426;1.500;2022-07-23T07:33:06;23.20;85.50
62363;DHT22;48396;48.426;1.500;2022-07-23T07:35:32;23.30;85.10
62363;DHT22;48396;48.426;1.500;2022-07-23T07:37:58;23.30;85.20
62363;DHT22;48396;48.426;1.500;2022-07-23T07:40:24;23.30;85.40
62363;DHT22;48396;48.426;1.500;2022-07-23T07:42:51;23.40;85.30
62363;DHT22;48396;48.426;1.500;2022-07-23T07:45:17;23.40;85.20
62363;DHT22;48396;48.426;1.500;2022-07-23T07:47:44;23.50;84.80
62363;DHT22;48396;48.426;1.500;2022-07-23T07:50:10;23.50;84.50
62363;DHT22;48396;48.426;1.500;2022-07-23T07:52:36;23.40;84.50
62363;DHT22;48396;48.426;1.500;2022-07-23T07:55:05;23.40;84.90
62363;DHT22;48396;48.426;1.500;2022-07-23T07:57:31;23.50;84.60
62363;DHT22;48396;48.426;1.500;2022-07-23T07:59:57;23.60;84.10
62363;DHT22;48396;48.426;1.500;2022-07-23T08:02:22;23.60;84.00
62363;DHT22;48396;48.426;1.500;2022-07-23T08:04:48;23.70;83.70
62363;DHT22;48396;48.426;1.500;2022-07-23T08:07:14;23.70;83.70
62363;DHT22;48396;48.426;1.500;2022-07-23T08:09:40;23.70;83.30
62363;DHT22;48396;48.426;1.500;2022-07-23T08:12:05;23.70;83.10
62363;DHT22;48396;48.426;1.500;2022-07-23T08:14:31;23.60;83.10
62363;DHT22;48396;48.426;1.500;2022-07-23T08:16:56;23.60;83.40
62363;DHT22;48396;48.426;1.500;2022-07-23T08:19:22;23.60;83.30
62363;DHT22;48396;48.426;1.500;2022-07-23T08:21:48;23.60;83.10
62363;DHT22;48396;48.426;1.500;2022-07-23T08:24:13;23.60;83.30
62363;DHT22;48396;48.426;1.500;2022-07-23T08:26:39;23.60;83.70
62363;DHT22;48396;48.426;1.500;2022-07-23T08:29:05;23.70;83.10
62363;DHT22;48396;48.426;1.500;2022-07-23T08:31:30;23.90;82.90
62363;DHT22;48396;48.426;1.500;2022-07-23T08:33:58;23.90;82.20
62363;DHT22;48396;48.426;1.500;2022-07-23T08:36:24;24.00;81.90
62363;DHT22;48396;48.426;1.500;2022-07-23T08:38:53;23.90;81.50
62363;DHT22;48396;48.426;1.500;2022-07-23T08:41:19;24.00;81.90
62363;DHT22;48396;48.426;1.500;2022-07-23T08:43:44;24.00;81.30
62363;DHT22;48396;48.426;1.500;2022-07-23T08:46:10;24.10;81.40
62363;DHT22;48396;48.426;1.500;2022-07-23T08:48:37;24.10;80.90
62363;DHT22;48396;48.426;1.500;2022-07-23T08:51:04;24.10;80.90
62363;DHT22;48396;48.426;1.500;2022-07-23T08:53:31;24.20;81.00
62363;DHT22;48396;48.426;1.500;2022-07-23T08:55:58;24.20;79.90
62363;DHT22;48396;48.426;1.500;2022-07-23T08:58:24;24.10;80.10
62363;DHT22;48396;48.426;1.500;2022-07-23T09:00:50;24.20;79.80
62363;DHT22;48396;48.426;1.500;2022-07-23T09:03:17;24.30;80.10
62363;DHT22;48396;48.426;1.500;2022-07-23T09:05:43;24.40;78.80
62363;DHT22;48396;48.426;1.500;2022-07-23T09:08:13;24.30;79.10
62363;DHT22;48396;48.426;1.500;2022-07-23T09:13:21;24.50;78.40
62363;DHT22;48396;48.426;1.500;2022-07-23T09:15:48;24.50;78.50
62363;DHT22;48396;48.426;1.500;2022-07-23T09:18:15;24.40;78.70
62363;DHT22;48396;48.426;1.500;2022-07-23T09:20:40;24.50;78.70
62363;DHT22;48396;48.426;1.500;2022-07-23T09:23:06;24.50;78.30
62363;DHT22;48396;48.426;1.500;2022-07-23T09:25:32;24.60;78.30
62363;DHT22;48396;48.426;1.500;2022-07-23T09:27:58;24.60;77.90
62363;DHT22;48396;48.426;1.500;2022-07-23T09:30:25;24.80;78.00
62363;DHT22;48396;48.426;1.500;2022-07-23T09:33:08;24.80;77.50
62363;DHT22;48396;48.426;1.500;2022-07-23T09:38:11;24.50;77.20
62363;DHT22;48396;48.426;1.500;2022-07-23T09:40:37;24.50;78.10
62363;DHT22;48396;48.426;1.500;2022-07-23T09:43:03;24.60;77.40
62363;DHT22;48396;48.426;1.500;2022-07-23T09:45:28;24.50;77.30
62363;DHT22;48396;48.426;1.500;2022-07-23T09:48:15;24.60;78.20
62363;DHT22;48396;48.426;1.500;2022-07-23T09:50:41;24.70;77.70
62363;DHT22;48396;48.426;1.500;2022-07-23T09:53:06;24.80;77.20
62363;DHT22;48396;48.426;1.500;2022-07-23T09:55:33;24.70;76.60
62363;DHT22;48396;48.426;1.500;2022-07-23T09:58:08;24.80;77.20
62363;DHT22;48396;48.426;1.500;2022-07-23T10:00:39;25.00;76.80
62363;DHT22;48396;48.426;1.500;2022-07-23T10:03:06;25.10;75.50
62363;DHT22;48396;48.426;1.500;2022-07-23T10:05:32;25.20;74.40
62363;DHT22;48396;48.426;1.500;2022-07-23T10:07:58;25.10;74.80
62363;DHT22;48396;48.426;1.500;2022-07-23T10:10:24;25.20;74.60
62363;DHT22;48396;48.426;1.500;2022-07-23T10:12:52;25.20;74.30
62363;DHT22;48396;48.426;1.500;2022-07-23T10:15:37;25.10;74.30
62363;DHT22;48396;48.426;1.500;2022-07-23T10:18:05;25.10;73.90
62363;DHT22;48396;48.426;1.500;2022-07-23T10:20:31;25.20;74.20
62363;DHT22;48396;48.426;1.500;2022-07-23T10:23:00;25.10;73.10
62363;DHT22;48396;48.426;1.500;2022-07-23T10:25:40;25.00;73.10
62363;DHT22;48396;48.426;1.500;2022-07-23T10:28:18;25.10;73.00
62363;DHT22;48396;48.426;1.500;2022-07-23T10:31:06;25.20;72.80
62363;DHT22;48396;48.426;1.500;2022-07-23T10:37:16;25.20;74.30
62363;DHT22;48396;48.426;1.500;2022-07-23T10:40:08;25.30;73.70
62363;DHT22;48396;48.426;1.500;2022-07-23T10:42:34;25.40;72.80
62363;DHT22;48396;48.426;1.500;2022-07-23T10:45:00;25.30;73.00
62363;DHT22;48396;48.426;1.500;2022-07-23T10:47:29;25.10;72.40
62363;DHT22;48396;48.426;1.500;2022-07-23T10:50:27;25.30;72.20
62363;DHT22;48396;48.426;1.500;2022-07-23T10:53:08;25.30;70.30
62363;DHT22;48396;48.426;1.500;2022-07-23T10:58:01;25.50;70.50
62363;DHT22;48396;48.426;1.500;2022-07-23T11:00:27;25.40;69.20
62363;DHT22;48396;48.426;1.500;2022-07-23T11:02:59;25.40;69.70
62363;DHT22;48396;48.426;1.500;2022-07-23T11:05:38;25.60;69.90
62363;DHT22;48396;48.426;1.500;2022-07-23T11:10:43;25.70;69.50
62363;DHT22;48396;48.426;1.500;2022-07-23T11:22:06;26.10;67.90
62363;DHT22;48396;48.426;1.500;2022-07-23T11:24:08;26.10;67.60
62363;DHT22;48396;48.426;1.500;2022-07-23T11:31:53;26.10;65.60
62363;DHT22;48396;48.426;1.500;2022-07-23T11:34:32;26.10;66.30
62363;DHT22;48396;48.426;1.500;2022-07-23T11:36:58;26.30;66.20
62363;DHT22;48396;48.426;1.500;2022-07-23T11:39:24;26.40;66.30
62363;DHT22;48396;48.426;1.500;2022-07-23T11:41:51;26.30;65.80
62363;DHT22;48396;48.426;1.500;2022-07-23T11:44:26;26.30;65.40
62363;DHT22;48396;48.426;1.500;2022-07-23T11:47:00;26.30;65.10
62363;DHT22;48396;48.426;1.500;2022-07-23T11:49:26;26.40;65.40
62363;DHT22;48396;48.426;1.500;2022-07-23T11:52:13;26.60;65.30
62363;DHT22;48396;48.426;1.500;2022-07-23T11:54:58;26.70;64.60
62363;DHT22;48396;48.426;1.500;2022-07-23T11:57:25;26.80;63.80
62363;DHT22;48396;48.426;1.500;2022-07-23T11:59:53;26.80;62.50
62363;DHT22;48396;48.426;1.500;2022-07-23T12:02:19;26.80;63.30
62363;DHT22;48396;48.426;1.500;2022-07-23T12:04:48;26.90;63.40
62363;DHT22;48396;48.426;1.500;2022-07-23T12:09:48;26.90;62.50
62363;DHT22;48396;48.426;1.500;2022-07-23T12:12:14;26.90;62.90
62363;DHT22;48396;48.426;1.500;2022-07-23T12:14:50;27.00;62.70
62363;DHT22;48396;48.426;1.500;2022-07-23T12:17:17;27.00;62.30
62363;DHT22;48396;48.426;1.500;2022-07-23T12:19:43;27.10;62.40
62363;DHT22;48396;48.426;1.500;2022-07-23T12:22:09;27.10;61.40
62363;DHT22;48396;48.426;1.500;2022-07-23T12:24:53;27.00;61.60
62363;DHT22;48396;48.426;1.500;2022-07-23T12:27:22;27.10;62.00
62363;DHT22;48396;48.426;1.500;2022-07-23T12:29:48;27.00;62.20
62363;DHT22;48396;48.426;1.500;2022-07-23T12:32:18;27.00;62.10
62363;DHT22;48396;48.426;1.500;2022-07-23T12:34:44;26.90;60.90
62363;DHT22;48396;48.426;1.500;2022-07-23T12:37:29;26.90;61.10
62363;DHT22;48396;48.426;1.500;2022-07-23T12:39:55;27.00;60.80
62363;DHT22;48396;48.426;1.500;2022-07-23T12:42:21;27.10;60.90
62363;DHT22;48396;48.426;1.500;2022-07-23T12:45:06;27.20;59.90
62363;DHT22;48396;48.426;1.500;2022-07-23T12:47:50;27.40;59.90
62363;DHT22;48396;48.426;1.500;2022-07-23T12:50:35;27.50;59.70
62363;DHT22;48396;48.426;1.500;2022-07-23T12:53:02;27.70;59.00
62363;DHT22;48396;48.426;1.500;2022-07-23T12:55:28;27.70;58.00
62363;DHT22;48396;48.426;1.500;2022-07-23T12:58:02;27.70;58.70
62363;DHT22;48396;48.426;1.500;2022-07-23T13:00:27;27.70;57.80
62363;DHT22;48396;48.426;1.500;2022-07-23T13:02:53;27.70;58.10
62363;DHT22;48396;48.426;1.500;2022-07-23T13:05:18;27.60;57.70
62363;DHT22;48396;48.426;1.500;2022-07-23T13:07:44;27.60;57.70
62363;DHT22;48396;48.426;1.500;2022-07-23T13:10:10;27.50;56.60
62363;DHT22;48396;48.426;1.500;2022-07-23T13:12:37;27.60;57.30
62363;DHT22;48396;48.426;1.500;2022-07-23T13:15:03;27.70;58.60
62363;DHT22;48396;48.426;1.500;2022-07-23T13:17:29;27.70;57.80
62363;DHT22;48396;48.426;1.500;2022-07-23T13:19:55;27.80;57.70
62363;DHT22;48396;48.426;1.500;2022-07-23T13:22:20;27.90;57.20
62363;DHT22;48396;48.426;1.500;2022-07-23T13:24:46;27.80;56.90
62363;DHT22;48396;48.426;1.500;2022-07-23T13:27:12;27.80;56.80
62363;DHT22;48396;48.426;1.500;2022-07-23T13:29:37;27.70;57.10
62363;DHT22;48396;48.426;1.500;2022-07-23T13:32:03;27.80;57.30
62363;DHT22;48396;48.426;1.500;2022-07-23T13:34:29;27.90;56.90
62363;DHT22;48396;48.426;1.500;2022-07-23T13:36:55;28.00;57.40
62363;DHT22;48396;48.426;1.500;2022-07-23T13:39:20;28.00;58.20
62363;DHT22;48396;48.426;1.500;2022-07-23T13:41:46;28.20;57.50
62363;DHT22;48396;48.426;1.500;2022-07-23T13:44:12;28.40;57.40
62363;DHT22;48396;48.426;1.500;2022-07-23T13:46:37;28.30;55.30
62363;DHT22;48396;48.426;1.500;2022-07-23T13:49:03;28.20;56.40
62363;DHT22;48396;48.426;1.500;2022-07-23T13:51:29;28.30;55.50
62363;DHT22;48396;48.426;1.500;2022-07-23T13:53:54;28.40;55.50
62363;DHT22;48396;48.426;1.500;2022-07-23T13:56:20;28.40;56.10
62363;DHT22;48396;48.426;1.500;2022-07-23T13:58:46;28.50;56.40
62363;DHT22;48396;48.426;1.500;2022-07-23T14:01:11;28.50;55.40
62363;DHT22;48396;48.426;1.500;2022-07-23T14:03:37;28.60;55.50
62363;DHT22;48396;48.426;1.500;2022-07-23T14:06:03;28.70;55.30
62363;DHT22;48396;48.426;1.500;2022-07-23T14:08:28;28.70;55.10
62363;DHT22;48396;48.426;1.500;2022-07-23T14:10:54;28.80;54.60
62363;DHT22;48396;48.426;1.500;2022-07-23T14:13:20;28.80;54.90
62363;DHT22;48396;48.426;1.500;2022-07-23T14:15:45;28.90;54.90
62363;DHT22;48396;48.426;1.500;2022-07-23T14:18:11;28.90;54.30
62363;DHT22;48396;48.426;1.500;2022-07-23T14:20:36;28.80;53.80
62363;DHT22;48396;48.426;1.500;2022-07-23T14:23:02;28.90;54.30
62363;DHT22;48396;48.426;1.500;2022-07-23T14:25:28;28.80;53.90
62363;DHT22;48396;48.426;1.500;2022-07-23T14:27:54;28.80;53.20
62363;DHT22;48396;48.426;1.500;2022-07-23T14:30:19;28.80;53.30
62363;DHT22;48396;48.426;1.500;2022-07-23T14:32:45;28.90;53.40
62363;DHT22;48396;48.426;1.500;2022-07-23T14:35:11;28.90;53.20
62363;DHT22;48396;48.426;1.500;2022-07-23T14:37:38;29.00;53.20
62363;DHT22;48396;48.426;1.500;2022-07-23T14:40:04;29.20;53.20
62363;DHT22;48396;48.426;1.500;2022-07-23T14:42:30;29.20;52.20
62363;DHT22;48396;48.426;1.500;2022-07-23T14:44:55;29.30;52.40
62363;DHT22;48396;48.426;1.500;2022-07-23T14:47:21;29.20;51.90
62363;DHT22;48396;48.426;1.500;2022-07-23T14:49:47;29.30;51.90
62363;DHT22;48396;48.426;1.500;2022-07-23T14:52:13;29.40;51.50
62363;DHT22;48396;48.426;1.500;2022-07-23T14:54:38;29.50;52.00
62363;DHT22;48396;48.426;1.500;2022-07-23T14:57:04;29.50;51.50
62363;DHT22;48396;48.426;1.500;2022-07-23T14:59:30;29.60;51.50
62363;DHT22;48396;48.426;1.500;2022-07-23T15:01:56;29.50;50.60
62363;DHT22;48396;48.426;1.500;2022-07-23T15:04:21;29.60;50.70
62363;DHT22;48396;48.426;1.500;2022-07-23T15:06:47;29.70;51.00
62363;DHT22;48396;48.426;1.500;2022-07-23T15:09:13;29.80;50.80
62363;DHT22;48396;48.426;1.500;2022-07-23T15:11:39;29.90;50.30
62363;DHT22;48396;48.426;1.500;2022-07-23T15:14:05;30.00;50.10
62363;DHT22;48396;48.426;1.500;2022-07-23T15:16:31;30.00;50.20
62363;DHT22;48396;48.426;1.500;2022-07-23T15:18:57;30.10;50.20
62363;DHT22;48396;48.426;1.500;2022-07-23T15:21:23;30.10;49.80
62363;DHT22;48396;48.426;1.500;2022-07-23T15:23:48;30.20;50.00
62363;DHT22;48396;48.426;1.500;2022-07-23T15:26:14;30.20;49.40
62363;DHT22;48396;48.426;1.500;2022-07-23T15:28:40;30.00;48.60
62363;DHT22;48396;48.426;1.500;2022-07-23T15:31:06;29.80;49.40
62363;DHT22;48396;48.426;1.500;2022-07-23T15:33:32;29.80;48.80
62363;DHT22;48396;48.426;1.500;2022-07-23T15:35:57;29.80;49.30
62363;DHT22;48396;48.426;1.500;2022-07-23T15:38:25;29.90;48.90
62363;DHT22;48396;48.426;1.500;2022-07-23T15:40:50;30.00;48.80
62363;DHT22;48396;48.426;1.500;2022-07-23T15:43:16;30.00;47.90
62363;DHT22;48396;48.426;1.500;2022-07-23T15:45:42;30.00;48.20
62363;DHT22;48396;48.426;1.500;2022-07-23T15:48:07;30.00;48.20
62363;DHT22;48396;48.426;1.500;2022-07-23T15:50:33;30.20;48.40
62363;DHT22;48396;48.426;1.500;2022-07-23T15:52:59;30.30;47.60
62363;DHT22;48396;48.426;1.500;2022-07-23T15:55:24;30.30;47.90
62363;DHT22;48396;48.426;1.500;2022-07-23T15:57:50;30.30;47.80